Time;durP1;ratioP1;P1;durP2;ratioP2;P2;SDS_P1;SDS_P2;PMS_P1;PMS_P2;Temp;Humidity;BMP_temperature;BMP_pressure;BME280_temperature;BME280_humidity;BME280_pressure;Samples;Min_cycle;Max_cycle;Signal;HPM_P1;HPM_P2
2022/08/02 00:00:16;;;;;;;;;;;;;;;30.15;42.56;98521.88;2054178;28;19933;-53
2022/08/02 00:01:17;;;;;;;;;;;;;;;30.14;42.68;98512.00;2059098;28;19933;-50
2022/08/02 00:02:19;;;;;;;;;;;;;;;30.14;43.02;98517.47;2057900;28;19933;-52
2022/08/02 00:03:20;;;;;;;;;;;;;;;30.14;42.67;98522.94;2052136;28;19933;-51
2022/08/02 00:04:21;;;;;;;;;;;;;;;30.13;42.45;98516.66;2061979;28;19968;-50
2022/08/02 00:05:22;;;;;;;;;;;;;;;30.15;42.49;98524.59;2064469;28;20303;-54
2022/08/02 00:06:23;;;;;;;;;;;;;;;30.14;42.81;98522.94;2056005;28;19929;-52
2022/08/02 00:07:24;;;;;;;;;;;;;;;30.13;42.81;98524.06;2056834;28;19937;-52
2022/08/02 00:08:26;;;;;;;;;;;;;;;30.14;42.62;98523.75;2052448;28;19944;-54
2022/08/02 00:09:26;;;;;;;;;;;;;;;30.13;42.86;98524.06;2057048;28;20541;-53
2022/08/02 00:10:28;;;;;;;;;;;;;;;30.13;42.80;98522.13;2058049;28;20024;-52
2022/08/02 00:11:28;;;;;;;;;;;;;;;30.14;42.77;98531.16;2056272;28;19938;-54
2022/08/02 00:12:30;;;;;;;;;;;;;;;30.14;42.96;98533.88;2059411;28;19977;-53
2022/08/02 00:13:31;;;;;;;;;;;;;;;30.14;43.16;98531.16;2054814;28;19929;-55
2022/08/02 00:14:32;;;;;;;;;;;;;;;30.14;42.92;98533.88;2054679;28;19926;-54
2022/08/02 00:15:33;;;;;;;;;;;;;;;30.14;42.75;98539.34;2055928;28;20482;-54
2022/08/02 00:16:36;;;;;;;;;;;;;;;30.13;43.23;98538.53;2057049;28;19936;-54
2022/08/02 00:17:37;;;;;;;;;;;;;;;30.12;43.04;98534.19;2060477;28;19929;-54
2022/08/02 00:18:38;;;;;;;;;;;;;;;30.13;43.02;98532.25;2044977;28;20015;-52
2022/08/02 00:19:39;;;;;;;;;;;;;;;30.12;42.80;98536.91;2054869;28;19929;-54
2022/08/02 00:20:40;;;;;;;;;;;;;;;30.13;43.01;98546.75;2056737;28;19940;-51
2022/08/02 00:21:41;;;;;;;;;;;;;;;30.13;43.04;98538.53;2057962;28;19933;-55
2022/08/02 00:22:43;;;;;;;;;;;;;;;30.12;43.17;98542.38;2059321;28;20294;-53
2022/08/02 00:23:43;;;;;;;;;;;;;;;30.11;43.49;98540.75;2052538;28;20315;-55
2022/08/02 00:24:45;;;;;;;;;;;;;;;30.10;43.52;98544.59;2053943;28;20061;-54
2022/08/02 00:25:46;;;;;;;;;;;;;;;30.12;43.43;98545.13;2058693;28;19936;-53
2022/08/02 00:26:47;;;;;;;;;;;;;;;30.11;43.38;98548.13;2058810;28;19940;-50
2022/08/02 00:27:48;;;;;;;;;;;;;;;30.11;43.06;98534.44;2052767;28;19968;-54
2022/08/02 00:28:49;;;;;;;;;;;;;;;30.11;42.81;98546.22;2054658;28;19929;-54
2022/08/02 00:29:50;;;;;;;;;;;;;;;30.11;43.31;98542.66;2052847;28;20605;-52
2022/08/02 00:30:52;;;;;;;;;;;;;;;30.13;42.93;98545.94;2055063;28;20012;-48
2022/08/02 00:31:54;;;;;;;;;;;;;;;30.12;42.82;98547.06;2058097;28;19930;-53
2022/08/02 00:32:56;;;;;;;;;;;;;;;30.12;42.92;98541.59;2057206;28;19977;-55
2022/08/02 00:33:56;;;;;;;;;;;;;;;30.11;43.26;98548.94;2056289;28;20410;-55
2022/08/02 00:34:58;;;;;;;;;;;;;;;30.12;42.88;98552.53;2055503;28;19934;-54
2022/08/02 00:35:58;;;;;;;;;;;;;;;30.13;43.00;98556.88;2054265;28;19930;-54
2022/08/02 00:37:00;;;;;;;;;;;;;;;30.11;42.90;98557.16;2060863;28;20955;-55
2022/08/02 00:38:01;;;;;;;;;;;;;;;30.12;42.74;98552.53;2057134;28;20948;-51
2022/08/02 00:39:03;;;;;;;;;;;;;;;30.12;42.72;98549.78;2055471;28;20057;-52
2022/08/02 00:40:04;;;;;;;;;;;;;;;30.12;43.30;98547.06;2055738;28;19936;-53
2022/08/02 00:41:11;;;;;;;;;;;;;;;30.11;43.30;98546.22;2057637;28;20071;-52
2022/08/02 00:42:13;;;;;;;;;;;;;;;30.12;43.28;98536.09;2057146;28;19937;-55
2022/08/02 00:43:14;;;;;;;;;;;;;;;30.12;43.04;98547.06;2060298;28;20001;-52
2022/08/02 00:44:15;;;;;;;;;;;;;;;30.11;42.75;98543.47;2058558;28;19929;-53
2022/08/02 00:45:16;;;;;;;;;;;;;;;30.11;43.02;98543.47;2052275;28;19933;-53
2022/08/02 00:46:18;;;;;;;;;;;;;;;30.11;43.22;98546.22;2056621;28;19976;-49
2022/08/02 00:47:21;;;;;;;;;;;;;;;30.12;43.06;98547.88;2051381;28;19933;-53
2022/08/02 00:48:21;;;;;;;;;;;;;;;30.12;42.94;98536.09;2063272;28;19956;-52
2022/08/02 00:49:23;;;;;;;;;;;;;;;30.11;43.32;98540.75;2059142;28;19976;-55
2022/08/02 00:50:23;;;;;;;;;;;;;;;30.11;42.54;98546.22;2059863;28;20427;-52
2022/08/02 00:51:25;;;;;;;;;;;;;;;30.11;43.11;98546.22;2058962;28;19935;-54
2022/08/02 00:52:25;;;;;;;;;;;;;;;30.12;42.83;98542.38;2058522;28;19972;-53
2022/08/02 00:53:27;;;;;;;;;;;;;;;30.11;42.79;98543.47;2056809;28;20499;-53
2022/08/02 00:54:28;;;;;;;;;;;;;;;30.10;43.67;98530.91;2056343;28;19938;-52
2022/08/02 00:55:29;;;;;;;;;;;;;;;30.09;43.18;98537.50;2061592;28;19949;-52
2022/08/02 00:56:30;;;;;;;;;;;;;;;30.11;42.81;98534.44;2054883;28;19929;-55
2022/08/02 00:57:32;;;;;;;;;;;;;;;30.11;43.18;98534.44;2055149;28;19930;-55
2022/08/02 00:58:32;;;;;;;;;;;;;;;30.11;43.42;98534.44;2054649;28;19926;-53
2022/08/02 00:59:34;;;;;;;;;;;;;;;30.11;43.23;98526.25;2054638;28;19936;-55
2022/08/02 01:00:34;;;;;;;;;;;;;;;30.11;43.01;98529.78;2052874;28;19975;-52
2022/08/02 01:01:39;;;;;;;;;;;;;;;30.10;42.82;98527.34;2057333;28;20124;-54
2022/08/02 01:02:41;;;;;;;;;;;;;;;30.11;43.01;98523.50;2060591;28;19984;-54
2022/08/02 01:03:43;;;;;;;;;;;;;;;30.10;43.68;98527.34;2060832;28;19925;-55
2022/08/02 01:04:44;;;;;;;;;;;;;;;30.10;43.25;98524.63;2056683;28;19987;-52
2022/08/02 01:05:45;;;;;;;;;;;;;;;30.10;42.89;98521.88;2057939;28;21262;-52
2022/08/02 01:06:46;;;;;;;;;;;;;;;30.11;42.96;98526.25;2054523;28;20331;-53
2022/08/02 01:07:47;;;;;;;;;;;;;;;30.10;42.78;98519.97;2054789;28;19939;-50
2022/08/02 01:08:48;;;;;;;;;;;;;;;30.10;42.86;98513.69;2054066;28;19934;-54
2022/08/02 01:09:50;;;;;;;;;;;;;;;30.10;42.89;98521.88;2054301;28;19957;-53
2022/08/02 01:10:50;;;;;;;;;;;;;;;30.09;43.58;98521.06;2056808;28;20296;-51
2022/08/02 01:11:52;;;;;;;;;;;;;;;30.09;42.98;98520.22;2059335;28;19964;-54
2022/08/02 01:12:52;;;;;;;;;;;;;;;30.08;43.18;98519.41;2053212;28;19933;-55
2022/08/02 01:13:56;;;;;;;;;;;;;;;30.08;43.15;98516.69;2059126;28;19934;-54
2022/08/02 01:15:01;;;;;;;;;;;;;;;30.09;43.16;98520.22;2051328;28;20462;-53
2022/08/02 01:16:05;;;;;;;;;;;;;;;30.08;43.08;98524.91;2054416;28;19933;-55
2022/08/02 01:17:10;;;;;;;;;;;;;;;30.09;42.98;98536.66;2052186;28;19934;-54
2022/08/02 01:18:15;;;;;;;;;;;;;;;30.09;42.91;98525.69;2055100;28;19933;-54
2022/08/02 01:19:31;;;;;;;;;;;;;;;30.09;43.11;98531.19;2054142;28;19936;-55
2022/08/02 01:20:49;;;;;;;;;;;;;;;30.09;42.83;98528.44;2055876;28;20575;-54
2022/08/02 01:22:01;;;;;;;;;;;;;;;30.08;43.50;98535.03;2060844;28;19929;-53
2022/08/02 01:23:08;;;;;;;;;;;;;;;30.08;43.17;98535.84;2058865;28;19929;-54
2022/08/02 01:24:16;;;;;;;;;;;;;;;30.08;43.12;98535.03;2052630;28;20461;-53
2022/08/02 01:25:25;;;;;;;;;;;;;;;30.09;43.47;98539.38;2055190;28;19933;-52
2022/08/02 01:26:37;;;;;;;;;;;;;;;30.08;43.34;98546.78;2059387;28;19936;-53
2022/08/02 01:27:45;;;;;;;;;;;;;;;30.08;43.26;98540.50;2056001;28;20486;-55
2022/08/02 01:28:50;;;;;;;;;;;;;;;30.08;43.27;98537.75;2053060;28;19930;-55
2022/08/02 01:29:55;;;;;;;;;;;;;;;30.08;43.48;98540.50;2049489;28;19934;-55
2022/08/02 01:31:00;;;;;;;;;;;;;;;30.08;43.40;98535.03;2045288;28;19930;-53
2022/08/02 01:32:05;;;;;;;;;;;;;;;30.08;43.08;98543.22;2052179;28;19933;-55
2022/08/02 01:33:07;;;;;;;;;;;;;;;30.07;43.00;98539.69;2048464;28;20545;-55
2022/08/02 01:34:11;;;;;;;;;;;;;;;30.08;42.92;98540.50;2056164;28;19937;-54
2022/08/02 01:35:14;;;;;;;;;;;;;;;30.06;42.84;98536.13;2057929;28;19930;-55
2022/08/02 01:36:16;;;;;;;;;;;;;;;30.06;43.13;98538.88;2056947;28;19944;-54
2022/08/02 01:37:19;;;;;;;;;;;;;;;30.06;42.77;98538.88;2060963;28;20426;-53
2022/08/02 01:38:22;;;;;;;;;;;;;;;30.09;42.89;98544.84;2056129;28;19926;-54
2022/08/02 01:39:26;;;;;;;;;;;;;;;30.06;42.85;98533.41;2060034;28;19937;-52
2022/08/02 01:40:28;;;;;;;;;;;;;;;30.07;42.92;98539.69;2057704;28;19933;-51
2022/08/02 01:41:31;;;;;;;;;;;;;;;30.06;43.07;98527.94;2057399;28;19992;-49
2022/08/02 01:42:32;;;;;;;;;;;;;;;30.07;42.94;98536.94;2058949;28;22314;-54
2022/08/02 01:43:34;;;;;;;;;;;;;;;30.06;42.95;98538.88;2055807;28;19939;-53
2022/08/02 01:44:39;;;;;;;;;;;;;;;30.06;42.78;98532.56;2052000;28;19937;-54
2022/08/02 01:45:42;;;;;;;;;;;;;;;30.06;42.89;98541.59;2054542;28;21151;-50
2022/08/02 01:46:43;;;;;;;;;;;;;;;30.08;43.05;98540.50;2052398;28;19984;-52
2022/08/02 01:47:46;;;;;;;;;;;;;;;30.06;43.00;98538.88;2057364;28;19925;-54
2022/08/02 01:48:48;;;;;;;;;;;;;;;30.06;42.92;98538.88;2054356;28;19933;-55
2022/08/02 01:49:53;;;;;;;;;;;;;;;30.06;43.05;98541.59;2058080;28;19934;-51
2022/08/02 01:50:54;;;;;;;;;;;;;;;30.06;42.97;98544.34;2058608;28;20287;-51
2022/08/02 01:53:18;;;;;;;;;;;;;;;30.05;42.77;98536.41;2059320;28;19929;-54
2022/08/02 01:54:21;;;;;;;;;;;;;;;30.05;42.92;98542.69;2056082;28;19929;-56
2022/08/02 01:55:23;;;;;;;;;;;;;;;30.05;42.84;98534.47;2053240;28;20607;-53
2022/08/02 01:56:24;;;;;;;;;;;;;;;30.06;42.84;98543.50;2055467;28;19941;-54
2022/08/02 01:57:26;;;;;;;;;;;;;;;30.05;43.05;98539.94;2048493;28;19935;-55
2022/08/02 01:58:29;;;;;;;;;;;;;;;30.05;42.92;98531.75;2051242;28;19960;-55
2022/08/02 01:59:32;;;;;;;;;;;;;;;30.06;43.04;98538.03;2053718;28;19934;-49
2022/08/02 02:00:38;;;;;;;;;;;;;;;30.06;42.95;98538.03;2054417;28;19936;-51
2022/08/02 02:01:40;;;;;;;;;;;;;;;30.05;43.01;98537.22;2051846;28;20423;-53
2022/08/02 02:02:42;;;;;;;;;;;;;;;30.06;42.93;98541.59;2045532;28;20434;-53
2022/08/02 02:03:45;;;;;;;;;;;;;;;30.05;42.86;98539.94;2044573;28;20612;-51
2022/08/02 02:04:46;;;;;;;;;;;;;;;30.05;43.12;98537.22;2049629;28;19930;-54
2022/08/02 02:05:49;;;;;;;;;;;;;;;30.05;43.21;98542.69;2047999;28;20028;-53
2022/08/02 02:06:50;;;;;;;;;;;;;;;30.05;43.04;98541.88;2054102;28;20036;-55
2022/08/02 02:07:53;;;;;;;;;;;;;;;30.04;43.00;98538.31;2052822;28;19934;-51
2022/08/02 02:08:55;;;;;;;;;;;;;;;30.04;43.11;98538.31;2054720;28;19926;-51
2022/08/02 02:09:58;;;;;;;;;;;;;;;30.05;43.04;98545.41;2057336;28;19973;-53
2022/08/02 02:11:00;;;;;;;;;;;;;;;30.05;42.82;98545.41;2045646;28;19929;-52
2022/08/02 02:12:02;;;;;;;;;;;;;;;30.05;43.07;98539.13;2051907;28;19956;-55
2022/08/02 02:13:05;;;;;;;;;;;;;;;30.05;42.80;98547.34;2050600;28;19941;-53
2022/08/02 02:14:07;;;;;;;;;;;;;;;30.05;42.89;98541.88;2044359;28;19961;-54
2022/08/02 02:15:09;;;;;;;;;;;;;;;30.05;42.82;98539.13;2044920;28;19929;-55
2022/08/02 02:16:14;;;;;;;;;;;;;;;30.04;43.07;98545.72;2053319;28;20551;-55
2022/08/02 02:17:15;;;;;;;;;;;;;;;30.05;43.14;98539.13;2053418;28;19930;-55
2022/08/02 02:18:20;;;;;;;;;;;;;;;30.04;42.83;98534.78;2057154;28;19929;-53
2022/08/02 02:19:21;;;;;;;;;;;;;;;30.04;42.94;98532.84;2058569;28;20557;-55
2022/08/02 02:20:23;;;;;;;;;;;;;;;30.03;42.87;98533.97;2056470;28;19948;-54
2022/08/02 02:21:23;;;;;;;;;;;;;;;30.04;42.80;98534.78;2056046;28;20066;-52
2022/08/02 02:22:25;;;;;;;;;;;;;;;30.04;42.99;98535.59;2056691;28;19929;-53
2022/08/02 02:23:25;;;;;;;;;;;;;;;30.03;42.99;98533.97;2059627;28;19933;-51
2022/08/02 02:24:27;;;;;;;;;;;;;;;30.03;43.07;98533.97;2055022;28;22536;-51
2022/08/02 02:25:28;;;;;;;;;;;;;;;30.03;42.87;98528.50;2055495;28;19933;-55
2022/08/02 02:26:30;;;;;;;;;;;;;;;30.03;42.97;98533.97;2057253;28;19941;-51
2022/08/02 02:27:31;;;;;;;;;;;;;;;30.04;43.07;98532.84;2054184;28;19925;-54
2022/08/02 02:28:35;;;;;;;;;;;;;;;30.02;42.76;98537.78;2059620;28;20291;-49
2022/08/02 02:29:38;;;;;;;;;;;;;;;30.03;43.04;98536.69;2054978;28;20404;-51
2022/08/02 02:30:41;;;;;;;;;;;;;;;30.03;42.88;98544.91;2059520;28;20016;-55
2022/08/02 02:31:45;;;;;;;;;;;;;;;30.02;42.87;98537.78;2058735;28;20448;-54
2022/08/02 02:32:48;;;;;;;;;;;;;;;30.02;42.99;98531.50;2054393;28;19986;-53
2022/08/02 02:33:50;;;;;;;;;;;;;;;30.02;43.02;98532.31;2057474;28;19933;-53
2022/08/02 02:34:52;;;;;;;;;;;;;;;30.02;42.94;98526.03;2061014;28;19930;-54
2022/08/02 02:35:53;;;;;;;;;;;;;;;30.03;43.13;98538.59;2055284;28;19931;-52
2022/08/02 02:36:56;;;;;;;;;;;;;;;30.03;42.98;98530.38;2052974;28;20552;-53
2022/08/02 02:37:58;;;;;;;;;;;;;;;30.01;43.04;98525.22;2053908;28;19940;-55
2022/08/02 02:39:01;;;;;;;;;;;;;;;30.02;43.08;98526.84;2056958;28;19930;-55
2022/08/02 02:40:02;;;;;;;;;;;;;;;30.02;43.12;98526.84;2053049;28;19929;-56
2022/08/02 02:41:05;;;;;;;;;;;;;;;30.03;42.91;98522.19;2056787;28;19930;-53
2022/08/02 02:42:08;;;;;;;;;;;;;;;30.04;43.10;98535.59;2054702;28;21065;-54
2022/08/02 02:43:10;;;;;;;;;;;;;;;30.02;42.98;98521.38;2058684;28;19934;-52
2022/08/02 02:44:13;;;;;;;;;;;;;;;30.02;42.94;98521.38;2053938;28;19936;-52
2022/08/02 02:45:17;;;;;;;;;;;;;;;30.02;43.04;98526.84;2052582;28;19934;-55
2022/08/02 02:46:20;;;;;;;;;;;;;;;30.01;42.92;98527.13;2054521;28;20677;-52
2022/08/02 02:47:24;;;;;;;;;;;;;;;30.01;43.13;98527.94;2055140;28;19930;-53
2022/08/02 02:48:25;;;;;;;;;;;;;;;30.02;42.95;98526.84;2057703;28;20586;-53
2022/08/02 02:49:27;;;;;;;;;;;;;;;30.02;42.92;98531.50;2059943;28;19933;-54
2022/08/02 02:50:29;;;;;;;;;;;;;;;30.01;43.06;98530.69;2056207;28;19933;-55
2022/08/02 02:51:31;;;;;;;;;;;;;;;30.01;43.03;98535.34;2055867;28;20559;-53
2022/08/02 02:52:32;;;;;;;;;;;;;;;30.01;43.07;98541.63;2062224;28;19955;-53
2022/08/02 02:53:35;;;;;;;;;;;;;;;30.00;43.16;98529.03;2056577;28;20980;-54
2022/08/02 02:54:37;;;;;;;;;;;;;;;30.00;42.82;98537.22;2057656;28;19926;-54
2022/08/02 02:55:39;;;;;;;;;;;;;;;30.00;43.13;98529.03;2058891;28;20430;-53
2022/08/02 02:56:40;;;;;;;;;;;;;;;30.01;43.02;98536.16;2054916;28;21222;-54
2022/08/02 02:57:42;;;;;;;;;;;;;;;30.00;43.13;98534.50;2059756;28;19929;-54
2022/08/02 02:58:43;;;;;;;;;;;;;;;30.00;42.87;98534.50;2052763;28;20559;-54
2022/08/02 02:59:44;;;;;;;;;;;;;;;30.00;43.08;98534.50;2060521;28;19933;-52
2022/08/02 03:02:06;;;;;;;;;;;;;;;29.99;42.99;98538.34;2056851;28;19977;-55
2022/08/02 03:03:08;;;;;;;;;;;;;;;30.00;42.85;98539.16;2055636;28;20530;-54
2022/08/02 03:04:11;;;;;;;;;;;;;;;29.99;43.11;98532.88;2053306;28;19933;-56
2022/08/02 03:05:12;;;;;;;;;;;;;;;30.00;42.82;98544.63;2053103;28;19926;-53
2022/08/02 03:06:13;;;;;;;;;;;;;;;30.00;43.10;98533.69;2052175;28;20371;-53
2022/08/02 03:07:14;;;;;;;;;;;;;;;29.99;42.90;98535.59;2059308;28;19929;-54
2022/08/02 03:08:16;;;;;;;;;;;;;;;30.00;43.16;98534.50;2057359;28;19972;-56
2022/08/02 03:09:16;;;;;;;;;;;;;;;30.00;42.95;98529.03;2052863;28;19930;-55
2022/08/02 03:10:18;;;;;;;;;;;;;;;30.00;42.93;98522.75;2060156;28;19933;-56
2022/08/02 03:11:19;;;;;;;;;;;;;;;29.99;43.16;98523.84;2061155;28;19930;-54
2022/08/02 03:12:21;;;;;;;;;;;;;;;29.98;43.15;98525.78;2055129;28;20647;-54
2022/08/02 03:13:22;;;;;;;;;;;;;;;29.98;43.23;98525.78;2055736;28;19941;-53
2022/08/02 03:14:23;;;;;;;;;;;;;;;29.99;42.99;98523.84;2056994;28;20521;-53
2022/08/02 03:15:26;;;;;;;;;;;;;;;29.99;43.02;98527.41;2054173;28;20433;-54
2022/08/02 03:16:28;;;;;;;;;;;;;;;29.98;42.90;98525.78;2058873;28;20998;-53
2022/08/02 03:17:38;;;;;;;;;;;;;;;29.98;42.93;98524.97;2055479;28;20112;-51
2022/08/02 03:18:42;;;;;;;;;;;;;;;29.98;43.02;98520.31;2053347;28;19933;-54
2022/08/02 03:19:43;;;;;;;;;;;;;;;29.98;43.05;98520.31;2053109;28;20326;-53
2022/08/02 03:20:45;;;;;;;;;;;;;;;29.98;42.73;98520.31;2054537;28;19957;-54
2022/08/02 03:21:46;;;;;;;;;;;;;;;29.99;42.82;98515.66;2053143;28;19929;-52
2022/08/02 03:22:48;;;;;;;;;;;;;;;29.97;42.93;98518.66;2058801;28;19925;-54
2022/08/02 03:23:49;;;;;;;;;;;;;;;29.98;43.14;98520.31;2052076;28;19933;-54
2022/08/02 03:24:50;;;;;;;;;;;;;;;29.99;43.15;98515.66;2054002;28;19932;-50
2022/08/02 03:25:51;;;;;;;;;;;;;;;29.98;42.90;98514.84;2055423;28;19968;-52
2022/08/02 03:26:52;;;;;;;;;;;;;;;29.97;43.19;98510.44;2054008;28;20391;-53
2022/08/02 03:27:53;;;;;;;;;;;;;;;29.97;43.26;98507.72;2059697;28;19936;-51
2022/08/02 03:28:54;;;;;;;;;;;;;;;29.97;43.02;98506.91;2054591;28;19933;-52
2022/08/02 03:29:55;;;;;;;;;;;;;;;29.97;43.02;98496.78;2056261;28;20551;-50
2022/08/02 03:30:57;;;;;;;;;;;;;;;29.97;43.11;98507.72;2055414;28;19941;-54
2022/08/02 03:31:57;;;;;;;;;;;;;;;29.97;43.16;98509.63;2050207;28;19940;-56
2022/08/02 03:32:59;;;;;;;;;;;;;;;29.96;43.29;98500.63;2051207;28;19960;-55
2022/08/02 03:34:01;;;;;;;;;;;;;;;29.96;43.22;98503.34;2052982;28;19935;-54
2022/08/02 03:35:04;;;;;;;;;;;;;;;29.96;43.23;98495.16;2057409;28;19953;-56
2022/08/02 03:36:07;;;;;;;;;;;;;;;29.97;43.21;98504.16;2055747;28;19925;-54
2022/08/02 03:37:09;;;;;;;;;;;;;;;29.95;43.24;98499.00;2051907;28;20342;-55
2022/08/02 03:38:11;;;;;;;;;;;;;;;29.96;43.27;98500.63;2052731;28;19952;-53
2022/08/02 03:39:13;;;;;;;;;;;;;;;29.97;43.08;98498.69;2058497;28;19953;-52
2022/08/02 03:40:14;;;;;;;;;;;;;;;29.96;43.23;98497.06;2054785;28;19925;-54
2022/08/02 03:41:17;;;;;;;;;;;;;;;29.96;43.11;98495.16;2058443;28;19933;-55
2022/08/02 03:42:18;;;;;;;;;;;;;;;29.97;43.22;98487.75;2055333;28;19941;-54
2022/08/02 03:43:20;;;;;;;;;;;;;;;29.96;43.11;98489.69;2057154;28;19934;-53
2022/08/02 03:44:21;;;;;;;;;;;;;;;29.97;43.08;98498.69;2056151;28;19933;-56
2022/08/02 03:45:24;;;;;;;;;;;;;;;29.95;42.98;98487.22;2054017;28;20531;-54
2022/08/02 03:46:24;;;;;;;;;;;;;;;29.97;43.17;98496.78;2056817;28;19991;-54
2022/08/02 03:47:28;;;;;;;;;;;;;;;29.96;43.00;98492.41;2056012;28;20567;-55
2022/08/02 03:48:30;;;;;;;;;;;;;;;29.96;43.16;98499.81;2058343;28;19941;-55
2022/08/02 03:49:33;;;;;;;;;;;;;;;29.94;42.99;98494.63;2052166;28;19984;-52
2022/08/02 03:50:35;;;;;;;;;;;;;;;29.95;43.05;98496.25;2052919;28;20564;-54
2022/08/02 03:51:37;;;;;;;;;;;;;;;29.96;43.11;98497.06;2055491;28;20532;-55
2022/08/02 03:52:38;;;;;;;;;;;;;;;29.95;43.03;98496.25;2054403;28;19930;-53
2022/08/02 03:53:40;;;;;;;;;;;;;;;29.95;42.82;98499.00;2050532;28;20541;-52
2022/08/02 03:54:41;;;;;;;;;;;;;;;29.95;43.01;98504.47;2055741;28;19940;-53
2022/08/02 03:55:43;;;;;;;;;;;;;;;29.95;42.95;98498.16;2055748;28;19929;-52
2022/08/02 03:56:44;;;;;;;;;;;;;;;29.94;42.88;98502.81;2059825;28;19933;-54
2022/08/02 03:57:45;;;;;;;;;;;;;;;29.95;43.06;98504.47;2058432;28;19940;-53
2022/08/02 03:58:46;;;;;;;;;;;;;;;29.95;43.04;98506.34;2057989;28;19976;-56
2022/08/02 03:59:47;;;;;;;;;;;;;;;29.94;43.16;98502.81;2055207;28;19929;-54
2022/08/02 04:00:48;;;;;;;;;;;;;;;29.94;43.02;98502.81;2059637;28;20244;-54
2022/08/02 04:01:49;;;;;;;;;;;;;;;29.94;42.98;98500.09;2054200;28;19941;-55
2022/08/02 04:02:50;;;;;;;;;;;;;;;29.95;42.96;98501.75;2055324;28;19929;-53
2022/08/02 04:03:52;;;;;;;;;;;;;;;29.94;42.88;98497.34;2057715;28;20450;-53
2022/08/02 04:04:54;;;;;;;;;;;;;;;29.94;43.17;98502.81;2062959;28;19929;-54
2022/08/02 04:05:55;;;;;;;;;;;;;;;29.94;42.89;98496.53;2058866;28;19929;-56
2022/08/02 04:06:56;;;;;;;;;;;;;;;29.94;43.04;98491.88;2053372;28;19929;-55
2022/08/02 04:07:58;;;;;;;;;;;;;;;29.94;42.92;98499.28;2040924;28;19944;-56
2022/08/02 04:08:58;;;;;;;;;;;;;;;29.93;43.08;98500.38;2050277;28;19933;-51
2022/08/02 04:10:00;;;;;;;;;;;;;;;29.94;42.95;98491.06;2050951;28;19934;-55
2022/08/02 04:12:20;;;;;;;;;;;;;;;29.92;43.00;98494.09;2058780;28;19953;-51
2022/08/02 04:13:21;;;;;;;;;;;;;;;29.92;43.19;98494.09;2054790;28;19930;-56
2022/08/02 04:14:23;;;;;;;;;;;;;;;29.93;42.90;98498.47;2049751;28;19945;-54
2022/08/02 04:15:24;;;;;;;;;;;;;;;29.93;42.84;98498.47;2054679;28;19930;-52
2022/08/02 04:16:29;;;;;;;;;;;;;;;29.93;43.14;98492.19;2053603;28;20020;-53
2022/08/02 04:17:31;;;;;;;;;;;;;;;29.91;43.08;98492.44;2050519;28;19937;-56
2022/08/02 04:18:36;;;;;;;;;;;;;;;29.92;43.13;98499.56;2054304;28;24811;-55
2022/08/02 04:19:39;;;;;;;;;;;;;;;29.92;43.04;98494.09;2055277;28;20016;-54
2022/08/02 04:20:42;;;;;;;;;;;;;;;29.91;43.06;98492.44;2052436;28;19934;-53
2022/08/02 04:21:46;;;;;;;;;;;;;;;29.92;42.91;98505.03;2052390;28;19940;-55
2022/08/02 04:22:48;;;;;;;;;;;;;;;29.93;42.82;98503.13;2054667;28;20450;-54
2022/08/02 04:23:51;;;;;;;;;;;;;;;29.92;42.98;98504.19;2053173;28;19934;-54
2022/08/02 04:24:54;;;;;;;;;;;;;;;29.92;42.86;98496.84;2054509;28;19977;-53
2022/08/02 04:25:56;;;;;;;;;;;;;;;29.90;42.97;98496.28;2054979;28;19929;-54
2022/08/02 04:26:58;;;;;;;;;;;;;;;29.91;42.91;98495.19;2048542;28;19937;-54
2022/08/02 04:28:00;;;;;;;;;;;;;;;29.91;43.00;98491.63;2054429;28;20509;-56
2022/08/02 04:29:01;;;;;;;;;;;;;;;29.91;43.08;98499.84;2051357;28;19930;-49
2022/08/02 04:30:03;;;;;;;;;;;;;;;29.92;42.99;98505.03;2048773;28;20709;-53
2022/08/02 04:31:04;;;;;;;;;;;;;;;29.91;43.05;98503.38;2047592;28;24201;-55
2022/08/02 04:32:07;;;;;;;;;;;;;;;29.90;42.76;98509.97;2029494;28;23228;-56
2022/08/02 04:33:07;;;;;;;;;;;;;;;29.90;42.97;98512.69;2042642;28;19936;-53
2022/08/02 04:34:09;;;;;;;;;;;;;;;29.90;42.79;98512.69;2045825;28;19929;-53
2022/08/02 04:35:10;;;;;;;;;;;;;;;29.89;42.89;98516.50;2056897;28;19933;-53
2022/08/02 04:36:14;;;;;;;;;;;;;;;29.90;42.76;98515.44;2052200;28;19990;-53
2022/08/02 04:37:14;;;;;;;;;;;;;;;29.90;42.88;98523.63;2054129;28;19976;-55
2022/08/02 04:38:16;;;;;;;;;;;;;;;29.89;42.79;98526.63;2048964;28;19933;-53
2022/08/02 04:39:17;;;;;;;;;;;;;;;29.89;42.95;98524.72;2049599;28;19930;-56
2022/08/02 04:40:19;;;;;;;;;;;;;;;29.89;42.84;98524.72;2051791;28;20032;-50
2022/08/02 04:41:19;;;;;;;;;;;;;;;29.89;42.85;98516.50;2048245;28;20544;-55
2022/08/02 04:42:21;;;;;;;;;;;;;;;29.89;42.98;98513.78;2047694;28;19932;-55
2022/08/02 04:43:22;;;;;;;;;;;;;;;29.89;42.53;98511.03;2047998;28;19933;-51
2022/08/02 04:44:24;;;;;;;;;;;;;;;29.74;37.04;98520.13;2043053;28;19953;-52
2022/08/02 04:45:25;;;;;;;;;;;;;;;29.60;36.22;98510.88;2052534;28;19933;-50
2022/08/02 04:46:27;;;;;;;;;;;;;;;29.52;36.20;98520.47;2047534;28;19933;-48
2022/08/02 04:47:28;;;;;;;;;;;;;;;29.47;36.22;98525.94;2039994;28;19926;-49
2022/08/02 04:48:29;;;;;;;;;;;;;;;29.44;36.14;98525.69;2050509;28;19936;-47
2022/08/02 04:49:30;;;;;;;;;;;;;;;29.42;36.23;98527.88;2047417;28;19933;-47
2022/08/02 04:50:31;;;;;;;;;;;;;;;29.38;36.55;98530.34;2047639;28;20323;-49
2022/08/02 04:51:35;;;;;;;;;;;;;;;29.39;36.12;98534.69;2049122;28;19936;-49
2022/08/02 04:52:36;;;;;;;;;;;;;;;29.37;36.20;98526.81;2053876;28;19937;-49
2022/08/02 04:53:37;;;;;;;;;;;;;;;29.34;36.21;98543.75;2056052;28;19933;-48
2022/08/02 04:54:38;;;;;;;;;;;;;;;29.34;36.39;98534.75;2053894;28;19930;-48
2022/08/02 04:55:40;;;;;;;;;;;;;;;29.28;36.37;98539.41;2053408;28;20594;-48
2022/08/02 04:56:42;;;;;;;;;;;;;;;29.30;36.36;98539.91;2057886;28;19960;-51
2022/08/02 04:57:54;;;;;;;;;;;;;;;29.27;36.53;98534.19;2056398;28;19934;-51
2022/08/02 04:58:56;;;;;;;;;;;;;;;29.25;36.45;98539.13;2055847;28;20044;-49
2022/08/02 04:59:57;;;;;;;;;;;;;;;29.27;36.56;98545.94;2050699;28;19933;-48
2022/08/02 05:00:58;;;;;;;;;;;;;;;29.26;36.51;98546.22;2052665;28;19995;-47
2022/08/02 05:01:59;;;;;;;;;;;;;;;29.21;36.81;98547.03;2049689;28;19936;-48
2022/08/02 05:03:01;;;;;;;;;;;;;;;29.21;36.64;98543.50;2043304;28;19941;-49
2022/08/02 05:04:01;;;;;;;;;;;;;;;29.18;36.61;98544.88;2042911;28;23208;-48
2022/08/02 05:05:03;;;;;;;;;;;;;;;29.17;36.83;98549.53;2045773;28;19940;-47
2022/08/02 05:06:05;;;;;;;;;;;;;;;29.17;36.94;98537.78;2047002;28;19933;-49
2022/08/02 05:07:07;;;;;;;;;;;;;;;29.16;37.03;98547.06;2054211;28;19929;-48
2022/08/02 05:08:09;;;;;;;;;;;;;;;29.15;37.02;98545.44;2051584;28;20061;-49
2022/08/02 05:09:09;;;;;;;;;;;;;;;29.13;37.00;98553.06;2054692;28;19934;-49
2022/08/02 05:10:11;;;;;;;;;;;;;;;29.11;37.21;98549.78;2048691;28;19925;-48
2022/08/02 05:11:13;;;;;;;;;;;;;;;29.11;37.15;98545.16;2043866;28;19929;-48
2022/08/02 05:12:13;;;;;;;;;;;;;;;29.09;37.17;98544.63;2050695;28;19930;-47
2022/08/02 05:13:15;;;;;;;;;;;;;;;29.06;37.11;98553.34;2054352;28;19925;-48
2022/08/02 05:14:15;;;;;;;;;;;;;;;29.02;37.28;98552.22;2056083;28;19929;-49
2022/08/02 05:15:17;;;;;;;;;;;;;;;29.00;37.42;98554.41;2049795;28;19940;-47
2022/08/02 05:16:17;;;;;;;;;;;;;;;29.01;37.30;98549.78;2049539;28;19969;-47
2022/08/02 05:17:19;;;;;;;;;;;;;;;29.00;37.49;98559.84;2052663;28;19936;-47
2022/08/02 05:18:20;;;;;;;;;;;;;;;28.96;37.54;98558.78;2051650;28;19929;-48
2022/08/02 05:19:21;;;;;;;;;;;;;;;28.95;37.49;98557.97;2050217;28;19933;-49
2022/08/02 05:20:22;;;;;;;;;;;;;;;28.92;37.53;98561.25;2051255;28;19929;-48
2022/08/02 05:21:23;;;;;;;;;;;;;;;28.88;37.67;98559.34;2050057;28;19933;-47
2022/08/02 05:22:25;;;;;;;;;;;;;;;28.87;37.77;98560.44;2052019;28;19934;-50
2022/08/02 05:23:27;;;;;;;;;;;;;;;28.92;37.82;98563.16;2054795;28;20024;-49
2022/08/02 05:24:27;;;;;;;;;;;;;;;28.94;37.66;98569.97;2049778;28;19933;-47
2022/08/02 05:25:29;;;;;;;;;;;;;;;28.92;37.68;98576.81;2052159;28;19939;-47
2022/08/02 05:26:29;;;;;;;;;;;;;;;28.86;37.58;98575.16;2051749;28;19940;-48
2022/08/02 05:27:32;;;;;;;;;;;;;;;28.87;37.77;98572.16;2050502;28;19937;-49